Terminal Aerodrome Forecast
Issued by NWS Cleveland, OH

Home | Current Version | Previous Version | Graphics & Text | Print | Product List | Glossary Off
Versions: 1 2 3 4 5 6 7 8 9 10 11 12 13 14 15 16

000
FTUS41 KCLE 301542 AAC
TAFYNG
TAF AMD
KYNG 301542Z 3016/3112 21006KT P6SM SCT012 OVC050
      TEMPO 3016/3017 4SM -RA BR BKN012
     FM301700 21008KT P6SM SCT020 BKN060
     FM302300 21006KT P6SM BKN100
     FM310300 21004KT P6SM SCT250
     FM310800 21004KT 4SM BR SCT250=

USA.gov is the U.S. government's official web portal to all federal, state and local government web resources and services.